Datos actuales meteorológicos del Aeropuerto de Valencia      LEVC Valencia Airport



Temperatura
29°C Temperatura
21°C Punto de rocío
62% Humedad



Viento
21 KM/H
13 MPH
6 M/S
11 NUDO



120°
ESE
Condiciones actuales

Parcialmente nublado Parcialmente nublado
Presión 1011.92 (hPa) - 29.88 (inHg)
Visibilidad 6.2 (milla) - 10 (km)
✈️ Manises
Código de aeropuerto LEVC

localidad: Valencia Airport
Distancia de Meteo Lliria: 18 (km)

Metar:
LEVC 031400Z 12011KT 070V160 9999 FEW030 29/21 Q1012 NOSIG

Hora: 03-08-2020 16:00 CEST

Follow @meteolliria2013